sensor_id;sensor_type;location;lat;lon;timestamp;P1;durP1;ratioP1;P2;durP2;ratioP2
50104;SDS011;47690;39.202;-77.198;2023-02-01T00:00:43;2.35;;;2.10;;
50104;SDS011;47690;39.202;-77.198;2023-02-01T00:03:14;2.70;;;2.33;;
50104;SDS011;47690;39.202;-77.198;2023-02-01T00:05:44;2.47;;;2.28;;
50104;SDS011;47690;39.202;-77.198;2023-02-01T00:08:13;2.40;;;2.20;;
50104;SDS011;47690;39.202;-77.198;2023-02-01T00:10:42;2.50;;;2.30;;
50104;SDS011;47690;39.202;-77.198;2023-02-01T00:13:11;3.00;;;2.60;;
50104;SDS011;47690;39.202;-77.198;2023-02-01T00:15:39;2.67;;;2.30;;
50104;SDS011;47690;39.202;-77.198;2023-02-01T00:18:09;2.75;;;2.30;;
50104;SDS011;47690;39.202;-77.198;2023-02-01T00:20:38;3.63;;;2.40;;
50104;SDS011;47690;39.202;-77.198;2023-02-01T00:23:09;3.00;;;2.45;;
50104;SDS011;47690;39.202;-77.198;2023-02-01T00:29:06;2.58;;;2.30;;
50104;SDS011;47690;39.202;-77.198;2023-02-01T00:31:41;2.30;;;2.10;;
50104;SDS011;47690;39.202;-77.198;2023-02-01T00:34:12;3.47;;;2.50;;
50104;SDS011;47690;39.202;-77.198;2023-02-01T00:36:43;3.10;;;2.42;;
50104;SDS011;47690;39.202;-77.198;2023-02-01T00:39:15;2.50;;;2.28;;
50104;SDS011;47690;39.202;-77.198;2023-02-01T00:41:45;4.38;;;2.58;;
50104;SDS011;47690;39.202;-77.198;2023-02-01T00:44:14;3.13;;;2.40;;
50104;SDS011;47690;39.202;-77.198;2023-02-01T00:46:44;2.58;;;2.38;;
50104;SDS011;47690;39.202;-77.198;2023-02-01T00:49:13;2.78;;;2.47;;
50104;SDS011;47690;39.202;-77.198;2023-02-01T00:51:42;2.58;;;2.35;;
50104;SDS011;47690;39.202;-77.198;2023-02-01T00:54:12;2.92;;;2.60;;
50104;SDS011;47690;39.202;-77.198;2023-02-01T00:56:41;3.00;;;2.50;;
50104;SDS011;47690;39.202;-77.198;2023-02-01T00:59:11;2.50;;;2.30;;
50104;SDS011;47690;39.202;-77.198;2023-02-01T01:01:40;3.15;;;2.60;;
50104;SDS011;47690;39.202;-77.198;2023-02-01T01:04:10;2.88;;;2.58;;
50104;SDS011;47690;39.202;-77.198;2023-02-01T01:06:39;2.80;;;2.50;;
50104;SDS011;47690;39.202;-77.198;2023-02-01T01:09:08;2.65;;;2.45;;
50104;SDS011;47690;39.202;-77.198;2023-02-01T01:11:38;2.78;;;2.47;;
50104;SDS011;47690;39.202;-77.198;2023-02-01T01:14:09;2.90;;;2.50;;
50104;SDS011;47690;39.202;-77.198;2023-02-01T01:16:39;2.75;;;2.55;;
50104;SDS011;47690;39.202;-77.198;2023-02-01T01:19:20;3.05;;;2.38;;
50104;SDS011;47690;39.202;-77.198;2023-02-01T01:21:49;2.75;;;2.40;;
50104;SDS011;47690;39.202;-77.198;2023-02-01T01:24:23;3.27;;;2.60;;
50104;SDS011;47690;39.202;-77.198;2023-02-01T01:27:00;2.55;;;2.30;;
50104;SDS011;47690;39.202;-77.198;2023-02-01T01:29:30;3.05;;;2.65;;
50104;SDS011;47690;39.202;-77.198;2023-02-01T01:31:59;2.60;;;2.20;;
50104;SDS011;47690;39.202;-77.198;2023-02-01T01:34:28;3.40;;;2.70;;
50104;SDS011;47690;39.202;-77.198;2023-02-01T01:36:59;3.10;;;2.65;;
50104;SDS011;47690;39.202;-77.198;2023-02-01T01:39:29;2.97;;;2.50;;
50104;SDS011;47690;39.202;-77.198;2023-02-01T01:41:58;2.90;;;2.35;;
50104;SDS011;47690;39.202;-77.198;2023-02-01T01:47:33;2.60;;;2.35;;
50104;SDS011;47690;39.202;-77.198;2023-02-01T01:50:07;2.47;;;2.28;;
50104;SDS011;47690;39.202;-77.198;2023-02-01T01:52:42;3.05;;;2.60;;
50104;SDS011;47690;39.202;-77.198;2023-02-01T01:55:15;3.30;;;2.60;;
50104;SDS011;47690;39.202;-77.198;2023-02-01T01:57:50;3.55;;;3.03;;
50104;SDS011;47690;39.202;-77.198;2023-02-01T02:00:29;2.80;;;2.53;;
50104;SDS011;47690;39.202;-77.198;2023-02-01T02:03:11;2.88;;;2.55;;
50104;SDS011;47690;39.202;-77.198;2023-02-01T02:05:46;2.95;;;2.33;;
50104;SDS011;47690;39.202;-77.198;2023-02-01T02:08:18;2.53;;;2.33;;
50104;SDS011;47690;39.202;-77.198;2023-02-01T02:10:50;3.17;;;2.65;;
50104;SDS011;47690;39.202;-77.198;2023-02-01T02:13:39;3.00;;;2.63;;
50104;SDS011;47690;39.202;-77.198;2023-02-01T02:42:12;3.60;;;2.83;;
50104;SDS011;47690;39.202;-77.198;2023-02-01T02:45:19;3.28;;;2.60;;
50104;SDS011;47690;39.202;-77.198;2023-02-01T02:48:34;3.17;;;2.80;;
50104;SDS011;47690;39.202;-77.198;2023-02-01T02:51:15;3.63;;;2.70;;
50104;SDS011;47690;39.202;-77.198;2023-02-01T02:54:13;2.90;;;2.53;;
50104;SDS011;47690;39.202;-77.198;2023-02-01T02:57:07;3.63;;;2.97;;
50104;SDS011;47690;39.202;-77.198;2023-02-01T03:00:00;2.90;;;2.60;;
50104;SDS011;47690;39.202;-77.198;2023-02-01T03:02:55;3.30;;;2.88;;
50104;SDS011;47690;39.202;-77.198;2023-02-01T03:05:44;2.88;;;2.58;;
50104;SDS011;47690;39.202;-77.198;2023-02-01T03:08:19;3.33;;;2.70;;
50104;SDS011;47690;39.202;-77.198;2023-02-01T03:19:34;3.38;;;2.90;;
50104;SDS011;47690;39.202;-77.198;2023-02-01T03:22:08;3.20;;;2.90;;
50104;SDS011;47690;39.202;-77.198;2023-02-01T03:25:09;4.40;;;3.20;;
50104;SDS011;47690;39.202;-77.198;2023-02-01T03:27:50;3.13;;;2.83;;
50104;SDS011;47690;39.202;-77.198;2023-02-01T03:30:36;3.78;;;3.00;;
50104;SDS011;47690;39.202;-77.198;2023-02-01T03:33:16;3.65;;;3.10;;
50104;SDS011;47690;39.202;-77.198;2023-02-01T03:36:02;4.40;;;3.22;;
50104;SDS011;47690;39.202;-77.198;2023-02-01T03:39:03;3.75;;;3.00;;
50104;SDS011;47690;39.202;-77.198;2023-02-01T03:41:58;3.47;;;2.97;;
50104;SDS011;47690;39.202;-77.198;2023-02-01T03:44:32;3.53;;;3.08;;
50104;SDS011;47690;39.202;-77.198;2023-02-01T03:47:06;3.85;;;3.10;;
50104;SDS011;47690;39.202;-77.198;2023-02-01T03:49:55;3.47;;;2.97;;
50104;SDS011;47690;39.202;-77.198;2023-02-01T03:52:31;3.70;;;3.20;;
50104;SDS011;47690;39.202;-77.198;2023-02-01T03:55:09;4.55;;;3.25;;
50104;SDS011;47690;39.202;-77.198;2023-02-01T03:57:48;3.33;;;2.93;;
50104;SDS011;47690;39.202;-77.198;2023-02-01T04:00:30;3.25;;;2.72;;
50104;SDS011;47690;39.202;-77.198;2023-02-01T04:03:00;3.55;;;2.90;;
50104;SDS011;47690;39.202;-77.198;2023-02-01T04:05:33;3.53;;;3.08;;
50104;SDS011;47690;39.202;-77.198;2023-02-01T04:08:07;4.07;;;3.03;;
50104;SDS011;47690;39.202;-77.198;2023-02-01T04:10:36;4.68;;;3.25;;
50104;SDS011;47690;39.202;-77.198;2023-02-01T04:13:07;3.10;;;2.80;;
50104;SDS011;47690;39.202;-77.198;2023-02-01T04:15:38;3.88;;;3.30;;
50104;SDS011;47690;39.202;-77.198;2023-02-01T04:18:08;3.72;;;3.03;;
50104;SDS011;47690;39.202;-77.198;2023-02-01T04:20:37;3.40;;;2.92;;
50104;SDS011;47690;39.202;-77.198;2023-02-01T04:23:07;3.83;;;3.17;;
50104;SDS011;47690;39.202;-77.198;2023-02-01T04:25:36;3.47;;;2.90;;
50104;SDS011;47690;39.202;-77.198;2023-02-01T04:28:06;3.95;;;3.13;;
50104;SDS011;47690;39.202;-77.198;2023-02-01T04:30:37;4.53;;;3.58;;
50104;SDS011;47690;39.202;-77.198;2023-02-01T04:33:06;3.42;;;3.05;;
50104;SDS011;47690;39.202;-77.198;2023-02-01T04:35:38;3.97;;;3.00;;
50104;SDS011;47690;39.202;-77.198;2023-02-01T04:38:07;3.30;;;2.92;;
50104;SDS011;47690;39.202;-77.198;2023-02-01T04:40:36;4.32;;;3.17;;
50104;SDS011;47690;39.202;-77.198;2023-02-01T04:43:06;3.08;;;2.70;;
50104;SDS011;47690;39.202;-77.198;2023-02-01T04:45:37;3.78;;;2.85;;
50104;SDS011;47690;39.202;-77.198;2023-02-01T04:48:06;3.88;;;3.05;;
50104;SDS011;47690;39.202;-77.198;2023-02-01T04:50:36;4.22;;;2.90;;
50104;SDS011;47690;39.202;-77.198;2023-02-01T04:53:05;4.65;;;3.40;;
50104;SDS011;47690;39.202;-77.198;2023-02-01T04:55:34;3.65;;;3.13;;
50104;SDS011;47690;39.202;-77.198;2023-02-01T04:58:02;3.63;;;3.03;;
50104;SDS011;47690;39.202;-77.198;2023-02-01T05:00:32;3.45;;;2.97;;
50104;SDS011;47690;39.202;-77.198;2023-02-01T05:03:02;3.28;;;2.72;;
50104;SDS011;47690;39.202;-77.198;2023-02-01T05:05:32;3.78;;;3.13;;
50104;SDS011;47690;39.202;-77.198;2023-02-01T05:08:00;3.28;;;2.92;;
50104;SDS011;47690;39.202;-77.198;2023-02-01T05:10:29;4.30;;;3.25;;
50104;SDS011;47690;39.202;-77.198;2023-02-01T05:12:58;3.28;;;2.85;;
50104;SDS011;47690;39.202;-77.198;2023-02-01T05:15:46;3.95;;;3.00;;
50104;SDS011;47690;39.202;-77.198;2023-02-01T05:18:14;3.97;;;3.35;;
50104;SDS011;47690;39.202;-77.198;2023-02-01T05:20:43;5.20;;;3.40;;
50104;SDS011;47690;39.202;-77.198;2023-02-01T05:23:13;4.53;;;3.30;;
50104;SDS011;47690;39.202;-77.198;2023-02-01T05:25:43;4.75;;;3.50;;
50104;SDS011;47690;39.202;-77.198;2023-02-01T05:28:12;3.83;;;3.08;;
50104;SDS011;47690;39.202;-77.198;2023-02-01T05:30:41;5.22;;;3.55;;
50104;SDS011;47690;39.202;-77.198;2023-02-01T05:33:11;4.93;;;3.67;;
50104;SDS011;47690;39.202;-77.198;2023-02-01T05:35:39;3.95;;;3.38;;
50104;SDS011;47690;39.202;-77.198;2023-02-01T05:38:09;5.35;;;3.50;;
50104;SDS011;47690;39.202;-77.198;2023-02-01T05:40:38;4.90;;;3.08;;
50104;SDS011;47690;39.202;-77.198;2023-02-01T05:43:07;4.65;;;3.45;;
50104;SDS011;47690;39.202;-77.198;2023-02-01T05:45:36;4.78;;;3.50;;
50104;SDS011;47690;39.202;-77.198;2023-02-01T05:48:06;4.15;;;3.20;;
50104;SDS011;47690;39.202;-77.198;2023-02-01T05:50:35;4.82;;;3.28;;
50104;SDS011;47690;39.202;-77.198;2023-02-01T05:53:08;3.83;;;3.17;;
50104;SDS011;47690;39.202;-77.198;2023-02-01T05:55:37;4.32;;;3.30;;
50104;SDS011;47690;39.202;-77.198;2023-02-01T05:58:07;4.53;;;3.50;;
50104;SDS011;47690;39.202;-77.198;2023-02-01T06:00:36;4.15;;;3.20;;
50104;SDS011;47690;39.202;-77.198;2023-02-01T06:03:06;4.80;;;3.53;;
50104;SDS011;47690;39.202;-77.198;2023-02-01T06:05:35;6.03;;;3.63;;
50104;SDS011;47690;39.202;-77.198;2023-02-01T06:08:04;5.00;;;3.75;;
50104;SDS011;47690;39.202;-77.198;2023-02-01T06:10:35;4.13;;;3.40;;
50104;SDS011;47690;39.202;-77.198;2023-02-01T06:13:05;3.92;;;3.33;;
50104;SDS011;47690;39.202;-77.198;2023-02-01T06:15:34;4.38;;;3.55;;
50104;SDS011;47690;39.202;-77.198;2023-02-01T06:18:06;4.93;;;3.83;;
50104;SDS011;47690;39.202;-77.198;2023-02-01T06:20:35;4.30;;;3.42;;
50104;SDS011;47690;39.202;-77.198;2023-02-01T06:23:04;4.57;;;3.40;;
50104;SDS011;47690;39.202;-77.198;2023-02-01T06:25:32;4.03;;;3.10;;
50104;SDS011;47690;39.202;-77.198;2023-02-01T06:28:01;5.47;;;3.65;;
50104;SDS011;47690;39.202;-77.198;2023-02-01T06:30:34;4.85;;;3.47;;
50104;SDS011;47690;39.202;-77.198;2023-02-01T06:33:02;4.75;;;3.63;;
50104;SDS011;47690;39.202;-77.198;2023-02-01T06:35:31;4.60;;;3.60;;
50104;SDS011;47690;39.202;-77.198;2023-02-01T06:38:00;5.43;;;3.63;;
50104;SDS011;47690;39.202;-77.198;2023-02-01T06:40:28;4.07;;;3.33;;
50104;SDS011;47690;39.202;-77.198;2023-02-01T06:42:58;4.82;;;3.65;;
50104;SDS011;47690;39.202;-77.198;2023-02-01T06:45:27;5.00;;;3.25;;
50104;SDS011;47690;39.202;-77.198;2023-02-01T06:47:58;4.38;;;3.33;;
50104;SDS011;47690;39.202;-77.198;2023-02-01T06:50:28;4.15;;;3.67;;
50104;SDS011;47690;39.202;-77.198;2023-02-01T06:52:57;3.95;;;3.28;;
50104;SDS011;47690;39.202;-77.198;2023-02-01T06:55:26;4.75;;;3.40;;
50104;SDS011;47690;39.202;-77.198;2023-02-01T06:57:56;4.25;;;3.45;;
50104;SDS011;47690;39.202;-77.198;2023-02-01T07:00:25;3.78;;;3.22;;
50104;SDS011;47690;39.202;-77.198;2023-02-01T07:02:54;4.22;;;3.30;;
50104;SDS011;47690;39.202;-77.198;2023-02-01T07:05:25;4.90;;;3.13;;
50104;SDS011;47690;39.202;-77.198;2023-02-01T07:07:55;3.80;;;2.92;;
50104;SDS011;47690;39.202;-77.198;2023-02-01T07:10:26;3.75;;;3.03;;
50104;SDS011;47690;39.202;-77.198;2023-02-01T07:12:58;3.95;;;3.08;;
50104;SDS011;47690;39.202;-77.198;2023-02-01T07:15:28;4.18;;;3.00;;
50104;SDS011;47690;39.202;-77.198;2023-02-01T07:17:56;3.85;;;2.92;;
50104;SDS011;47690;39.202;-77.198;2023-02-01T07:20:25;4.30;;;2.92;;
50104;SDS011;47690;39.202;-77.198;2023-02-01T07:22:59;4.10;;;3.15;;
50104;SDS011;47690;39.202;-77.198;2023-02-01T07:25:28;3.90;;;3.05;;
50104;SDS011;47690;39.202;-77.198;2023-02-01T07:27:59;4.25;;;2.97;;
50104;SDS011;47690;39.202;-77.198;2023-02-01T07:30:30;3.80;;;3.00;;
50104;SDS011;47690;39.202;-77.198;2023-02-01T07:33:00;3.80;;;3.10;;
50104;SDS011;47690;39.202;-77.198;2023-02-01T07:35:30;4.70;;;3.38;;
50104;SDS011;47690;39.202;-77.198;2023-02-01T07:37:59;3.65;;;2.80;;
50104;SDS011;47690;39.202;-77.198;2023-02-01T07:40:29;4.38;;;3.00;;
50104;SDS011;47690;39.202;-77.198;2023-02-01T07:42:58;3.75;;;3.03;;
50104;SDS011;47690;39.202;-77.198;2023-02-01T07:45:31;4.85;;;3.00;;
50104;SDS011;47690;39.202;-77.198;2023-02-01T07:48:03;3.78;;;3.22;;
50104;SDS011;47690;39.202;-77.198;2023-02-01T07:50:35;3.72;;;3.15;;
50104;SDS011;47690;39.202;-77.198;2023-02-01T07:53:06;4.57;;;3.28;;
50104;SDS011;47690;39.202;-77.198;2023-02-01T07:55:38;3.65;;;3.03;;
50104;SDS011;47690;39.202;-77.198;2023-02-01T07:58:09;5.43;;;3.33;;
50104;SDS011;47690;39.202;-77.198;2023-02-01T08:00:40;3.30;;;2.97;;
50104;SDS011;47690;39.202;-77.198;2023-02-01T08:03:29;3.78;;;3.13;;
50104;SDS011;47690;39.202;-77.198;2023-02-01T08:05:59;3.47;;;2.95;;
50104;SDS011;47690;39.202;-77.198;2023-02-01T08:08:28;4.03;;;3.33;;
50104;SDS011;47690;39.202;-77.198;2023-02-01T08:10:59;4.03;;;3.42;;
50104;SDS011;47690;39.202;-77.198;2023-02-01T08:13:33;4.93;;;3.35;;
50104;SDS011;47690;39.202;-77.198;2023-02-01T08:16:06;4.05;;;3.20;;
50104;SDS011;47690;39.202;-77.198;2023-02-01T08:18:39;3.78;;;3.20;;
50104;SDS011;47690;39.202;-77.198;2023-02-01T08:21:14;4.15;;;3.30;;
50104;SDS011;47690;39.202;-77.198;2023-02-01T08:23:45;3.97;;;3.25;;
50104;SDS011;47690;39.202;-77.198;2023-02-01T08:26:22;4.40;;;3.33;;
50104;SDS011;47690;39.202;-77.198;2023-02-01T08:28:57;4.40;;;3.30;;
50104;SDS011;47690;39.202;-77.198;2023-02-01T08:31:30;4.03;;;3.28;;
50104;SDS011;47690;39.202;-77.198;2023-02-01T08:34:00;4.28;;;3.35;;
50104;SDS011;47690;39.202;-77.198;2023-02-01T08:36:33;4.40;;;3.30;;
50104;SDS011;47690;39.202;-77.198;2023-02-01T08:39:03;4.95;;;3.67;;
50104;SDS011;47690;39.202;-77.198;2023-02-01T08:41:37;5.25;;;3.63;;
50104;SDS011;47690;39.202;-77.198;2023-02-01T08:44:07;4.75;;;3.65;;
50104;SDS011;47690;39.202;-77.198;2023-02-01T08:46:39;4.25;;;3.35;;
50104;SDS011;47690;39.202;-77.198;2023-02-01T08:49:10;3.60;;;3.10;;
50104;SDS011;47690;39.202;-77.198;2023-02-01T08:51:39;3.92;;;3.45;;
50104;SDS011;47690;39.202;-77.198;2023-02-01T08:54:10;5.03;;;3.67;;
50104;SDS011;47690;39.202;-77.198;2023-02-01T08:56:39;4.97;;;3.88;;
50104;SDS011;47690;39.202;-77.198;2023-02-01T08:59:09;4.00;;;3.35;;
50104;SDS011;47690;39.202;-77.198;2023-02-01T09:01:38;4.55;;;3.40;;
50104;SDS011;47690;39.202;-77.198;2023-02-01T09:04:08;4.20;;;3.50;;
50104;SDS011;47690;39.202;-77.198;2023-02-01T09:06:39;5.15;;;3.70;;
50104;SDS011;47690;39.202;-77.198;2023-02-01T09:09:10;4.50;;;3.67;;
50104;SDS011;47690;39.202;-77.198;2023-02-01T09:11:38;4.20;;;3.65;;
50104;SDS011;47690;39.202;-77.198;2023-02-01T09:14:07;4.20;;;3.47;;
50104;SDS011;47690;39.202;-77.198;2023-02-01T09:16:36;3.88;;;3.47;;
50104;SDS011;47690;39.202;-77.198;2023-02-01T09:19:07;4.18;;;3.72;;
50104;SDS011;47690;39.202;-77.198;2023-02-01T09:21:54;3.95;;;3.55;;
50104;SDS011;47690;39.202;-77.198;2023-02-01T09:24:24;4.65;;;3.63;;
50104;SDS011;47690;39.202;-77.198;2023-02-01T09:26:53;5.03;;;4.18;;
50104;SDS011;47690;39.202;-77.198;2023-02-01T09:29:23;3.75;;;3.20;;
50104;SDS011;47690;39.202;-77.198;2023-02-01T09:31:53;4.75;;;3.67;;
50104;SDS011;47690;39.202;-77.198;2023-02-01T09:34:30;4.13;;;3.55;;
50104;SDS011;47690;39.202;-77.198;2023-02-01T09:36:59;3.63;;;3.13;;
50104;SDS011;47690;39.202;-77.198;2023-02-01T09:39:28;5.55;;;3.65;;
50104;SDS011;47690;39.202;-77.198;2023-02-01T09:42:11;4.03;;;3.42;;
50104;SDS011;47690;39.202;-77.198;2023-02-01T09:45:04;4.15;;;3.30;;
50104;SDS011;47690;39.202;-77.198;2023-02-01T09:48:00;4.50;;;3.17;;
50104;SDS011;47690;39.202;-77.198;2023-02-01T09:50:39;5.53;;;3.95;;
50104;SDS011;47690;39.202;-77.198;2023-02-01T09:53:15;4.82;;;3.70;;
50104;SDS011;47690;39.202;-77.198;2023-02-01T09:55:50;5.22;;;3.40;;
50104;SDS011;47690;39.202;-77.198;2023-02-01T10:01:15;4.78;;;3.65;;
50104;SDS011;47690;39.202;-77.198;2023-02-01T10:03:47;4.90;;;3.80;;
50104;SDS011;47690;39.202;-77.198;2023-02-01T10:22:59;3.97;;;3.28;;
50104;SDS011;47690;39.202;-77.198;2023-02-01T10:28:58;3.58;;;3.17;;
50104;SDS011;47690;39.202;-77.198;2023-02-01T10:31:31;3.70;;;3.05;;
50104;SDS011;47690;39.202;-77.198;2023-02-01T10:39:56;4.78;;;3.53;;
50104;SDS011;47690;39.202;-77.198;2023-02-01T10:42:38;3.40;;;3.10;;
50104;SDS011;47690;39.202;-77.198;2023-02-01T10:45:13;3.90;;;3.22;;
50104;SDS011;47690;39.202;-77.198;2023-02-01T10:47:46;4.55;;;3.53;;
50104;SDS011;47690;39.202;-77.198;2023-02-01T10:53:17;4.45;;;3.53;;
50104;SDS011;47690;39.202;-77.198;2023-02-01T10:55:51;4.30;;;3.58;;
50104;SDS011;47690;39.202;-77.198;2023-02-01T10:58:26;4.95;;;3.35;;
50104;SDS011;47690;39.202;-77.198;2023-02-01T11:01:04;5.35;;;3.42;;
50104;SDS011;47690;39.202;-77.198;2023-02-01T11:09:00;4.57;;;3.42;;
50104;SDS011;47690;39.202;-77.198;2023-02-01T11:14:18;4.55;;;3.63;;
50104;SDS011;47690;39.202;-77.198;2023-02-01T11:19:26;4.18;;;3.45;;
50104;SDS011;47690;39.202;-77.198;2023-02-01T11:21:58;4.38;;;3.65;;
50104;SDS011;47690;39.202;-77.198;2023-02-01T11:24:31;4.43;;;3.42;;
50104;SDS011;47690;39.202;-77.198;2023-02-01T11:27:03;4.63;;;3.60;;
50104;SDS011;47690;39.202;-77.198;2023-02-01T11:29:52;4.75;;;3.47;;
50104;SDS011;47690;39.202;-77.198;2023-02-01T11:32:27;4.60;;;3.63;;
50104;SDS011;47690;39.202;-77.198;2023-02-01T11:35:02;3.88;;;3.15;;
50104;SDS011;47690;39.202;-77.198;2023-02-01T11:37:39;4.13;;;3.45;;
50104;SDS011;47690;39.202;-77.198;2023-02-01T11:45:30;4.85;;;2.97;;
50104;SDS011;47690;39.202;-77.198;2023-02-01T11:48:08;3.92;;;3.30;;
50104;SDS011;47690;39.202;-77.198;2023-02-01T11:51:04;3.35;;;3.05;;
50104;SDS011;47690;39.202;-77.198;2023-02-01T11:56:38;3.50;;;2.90;;
50104;SDS011;47690;39.202;-77.198;2023-02-01T11:59:26;3.47;;;2.85;;
50104;SDS011;47690;39.202;-77.198;2023-02-01T12:08:00;3.30;;;2.38;;
50104;SDS011;47690;39.202;-77.198;2023-02-01T12:10:47;2.80;;;2.50;;
50104;SDS011;47690;39.202;-77.198;2023-02-01T12:16:53;2.80;;;2.38;;
50104;SDS011;47690;39.202;-77.198;2023-02-01T12:22:42;2.80;;;2.30;;
50104;SDS011;47690;39.202;-77.198;2023-02-01T12:39:57;2.28;;;2.08;;
50104;SDS011;47690;39.202;-77.198;2023-02-01T12:42:40;2.20;;;2.00;;
50104;SDS011;47690;39.202;-77.198;2023-02-01T12:45:17;2.45;;;2.25;;
50104;SDS011;47690;39.202;-77.198;2023-02-01T12:51:00;2.58;;;2.20;;
50104;SDS011;47690;39.202;-77.198;2023-02-01T12:53:42;2.15;;;2.00;;
50104;SDS011;47690;39.202;-77.198;2023-02-01T12:56:18;2.67;;;2.30;;
50104;SDS011;47690;39.202;-77.198;2023-02-01T12:59:52;2.50;;;2.20;;
50104;SDS011;47690;39.202;-77.198;2023-02-01T13:07:58;2.30;;;2.00;;
50104;SDS011;47690;39.202;-77.198;2023-02-01T13:10:36;2.40;;;2.20;;
50104;SDS011;47690;39.202;-77.198;2023-02-01T13:18:46;2.80;;;2.13;;
50104;SDS011;47690;39.202;-77.198;2023-02-01T13:21:25;3.05;;;2.10;;
50104;SDS011;47690;39.202;-77.198;2023-02-01T13:24:00;2.33;;;2.13;;
50104;SDS011;47690;39.202;-77.198;2023-02-01T13:26:30;2.47;;;2.28;;
50104;SDS011;47690;39.202;-77.198;2023-02-01T13:29:01;3.05;;;2.38;;
50104;SDS011;47690;39.202;-77.198;2023-02-01T13:45:33;2.65;;;2.13;;
50104;SDS011;47690;39.202;-77.198;2023-02-01T13:48:05;2.55;;;2.35;;
50104;SDS011;47690;39.202;-77.198;2023-02-01T13:50:43;2.67;;;2.20;;
50104;SDS011;47690;39.202;-77.198;2023-02-01T13:56:00;2.30;;;2.10;;
50104;SDS011;47690;39.202;-77.198;2023-02-01T13:58:35;3.45;;;2.30;;
50104;SDS011;47690;39.202;-77.198;2023-02-01T14:11:54;2.50;;;2.30;;
50104;SDS011;47690;39.202;-77.198;2023-02-01T14:19:30;2.38;;;2.17;;
50104;SDS011;47690;39.202;-77.198;2023-02-01T14:22:31;2.67;;;2.25;;
50104;SDS011;47690;39.202;-77.198;2023-02-01T14:24:55;2.47;;;2.28;;
50104;SDS011;47690;39.202;-77.198;2023-02-01T14:27:27;3.15;;;2.60;;
50104;SDS011;47690;39.202;-77.198;2023-02-01T14:30:06;3.30;;;2.40;;
50104;SDS011;47690;39.202;-77.198;2023-02-01T14:32:42;2.60;;;2.40;;
50104;SDS011;47690;39.202;-77.198;2023-02-01T14:35:24;3.00;;;2.70;;
50104;SDS011;47690;39.202;-77.198;2023-02-01T14:37:59;3.15;;;2.78;;
50104;SDS011;47690;39.202;-77.198;2023-02-01T14:40:36;3.35;;;2.60;;
50104;SDS011;47690;39.202;-77.198;2023-02-01T14:43:07;2.85;;;2.42;;
50104;SDS011;47690;39.202;-77.198;2023-02-01T14:45:57;2.80;;;2.50;;
50104;SDS011;47690;39.202;-77.198;2023-02-01T14:50:57;2.80;;;2.38;;
50104;SDS011;47690;39.202;-77.198;2023-02-01T14:53:32;2.88;;;2.60;;
50104;SDS011;47690;39.202;-77.198;2023-02-01T15:04:08;3.45;;;2.80;;
50104;SDS011;47690;39.202;-77.198;2023-02-01T15:14:36;3.10;;;2.35;;
50104;SDS011;47690;39.202;-77.198;2023-02-01T15:20:18;2.92;;;2.25;;
50104;SDS011;47690;39.202;-77.198;2023-02-01T15:23:01;4.28;;;2.33;;
50104;SDS011;47690;39.202;-77.198;2023-02-01T15:25:34;2.80;;;2.30;;
50104;SDS011;47690;39.202;-77.198;2023-02-01T15:28:10;3.15;;;2.42;;
50104;SDS011;47690;39.202;-77.198;2023-02-01T15:30:56;2.78;;;2.47;;
50104;SDS011;47690;39.202;-77.198;2023-02-01T15:33:31;2.50;;;2.30;;
50104;SDS011;47690;39.202;-77.198;2023-02-01T15:38:39;3.47;;;2.60;;
50104;SDS011;47690;39.202;-77.198;2023-02-01T15:49:01;3.05;;;2.40;;
50104;SDS011;47690;39.202;-77.198;2023-02-01T15:51:31;2.88;;;2.22;;
50104;SDS011;47690;39.202;-77.198;2023-02-01T15:56:39;2.53;;;2.22;;
50104;SDS011;47690;39.202;-77.198;2023-02-01T15:59:15;2.55;;;2.20;;
50104;SDS011;47690;39.202;-77.198;2023-02-01T16:01:47;3.05;;;2.38;;
50104;SDS011;47690;39.202;-77.198;2023-02-01T16:04:25;2.55;;;2.33;;
50104;SDS011;47690;39.202;-77.198;2023-02-01T16:07:01;3.97;;;2.47;;
50104;SDS011;47690;39.202;-77.198;2023-02-01T16:09:52;2.83;;;2.55;;
50104;SDS011;47690;39.202;-77.198;2023-02-01T16:15:14;2.30;;;2.10;;
50104;SDS011;47690;39.202;-77.198;2023-02-01T16:17:43;2.67;;;2.40;;
50104;SDS011;47690;39.202;-77.198;2023-02-01T16:20:14;2.85;;;2.42;;
50104;SDS011;47690;39.202;-77.198;2023-02-01T16:22:43;2.63;;;2.42;;
50104;SDS011;47690;39.202;-77.198;2023-02-01T16:25:13;2.72;;;2.38;;
50104;SDS011;47690;39.202;-77.198;2023-02-01T16:27:42;2.83;;;2.42;;
50104;SDS011;47690;39.202;-77.198;2023-02-01T16:30:11;2.85;;;2.50;;
50104;SDS011;47690;39.202;-77.198;2023-02-01T16:32:44;2.67;;;2.30;;
50104;SDS011;47690;39.202;-77.198;2023-02-01T16:35:48;2.90;;;2.20;;
50104;SDS011;47690;39.202;-77.198;2023-02-01T16:38:12;2.30;;;2.10;;
50104;SDS011;47690;39.202;-77.198;2023-02-01T16:40:43;2.80;;;2.28;;
50104;SDS011;47690;39.202;-77.198;2023-02-01T16:43:16;2.60;;;2.17;;
50104;SDS011;47690;39.202;-77.198;2023-02-01T16:45:48;2.47;;;2.03;;
50104;SDS011;47690;39.202;-77.198;2023-02-01T16:48:23;2.50;;;2.30;;
50104;SDS011;47690;39.202;-77.198;2023-02-01T16:50:56;2.97;;;2.38;;
50104;SDS011;47690;39.202;-77.198;2023-02-01T16:53:30;2.83;;;2.30;;
50104;SDS011;47690;39.202;-77.198;2023-02-01T16:56:16;2.27;;;2.07;;
50104;SDS011;47690;39.202;-77.198;2023-02-01T16:58:51;2.72;;;2.22;;
50104;SDS011;47690;39.202;-77.198;2023-02-01T17:01:23;2.33;;;2.13;;
50104;SDS011;47690;39.202;-77.198;2023-02-01T17:03:54;2.40;;;2.20;;
50104;SDS011;47690;39.202;-77.198;2023-02-01T17:06:26;2.63;;;2.20;;
50104;SDS011;47690;39.202;-77.198;2023-02-01T17:08:57;3.05;;;2.35;;
50104;SDS011;47690;39.202;-77.198;2023-02-01T17:11:29;3.38;;;2.20;;
50104;SDS011;47690;39.202;-77.198;2023-02-01T17:19:35;2.75;;;2.28;;
50104;SDS011;47690;39.202;-77.198;2023-02-01T17:22:05;3.22;;;2.40;;
50104;SDS011;47690;39.202;-77.198;2023-02-01T17:24:35;2.88;;;2.38;;
50104;SDS011;47690;39.202;-77.198;2023-02-01T17:27:16;2.33;;;2.10;;
50104;SDS011;47690;39.202;-77.198;2023-02-01T17:29:47;2.78;;;2.10;;
50104;SDS011;47690;39.202;-77.198;2023-02-01T17:32:23;3.03;;;2.17;;
50104;SDS011;47690;39.202;-77.198;2023-02-01T17:34:56;2.63;;;2.22;;
50104;SDS011;47690;39.202;-77.198;2023-02-01T17:37:30;3.10;;;2.50;;
50104;SDS011;47690;39.202;-77.198;2023-02-01T17:40:00;3.25;;;2.45;;
50104;SDS011;47690;39.202;-77.198;2023-02-01T17:42:32;2.72;;;2.20;;
50104;SDS011;47690;39.202;-77.198;2023-02-01T17:47:55;2.50;;;2.20;;
50104;SDS011;47690;39.202;-77.198;2023-02-01T17:50:27;2.88;;;2.13;;
50104;SDS011;47690;39.202;-77.198;2023-02-01T17:52:59;2.53;;;2.20;;
50104;SDS011;47690;39.202;-77.198;2023-02-01T17:55:31;2.83;;;2.10;;
50104;SDS011;47690;39.202;-77.198;2023-02-01T17:58:03;3.05;;;2.30;;
50104;SDS011;47690;39.202;-77.198;2023-02-01T18:00:33;2.88;;;2.10;;
50104;SDS011;47690;39.202;-77.198;2023-02-01T18:03:05;2.47;;;2.03;;
50104;SDS011;47690;39.202;-77.198;2023-02-01T18:08:08;2.90;;;2.40;;
50104;SDS011;47690;39.202;-77.198;2023-02-01T18:10:39;2.70;;;2.30;;
50104;SDS011;47690;39.202;-77.198;2023-02-01T18:13:11;2.80;;;2.28;;
50104;SDS011;47690;39.202;-77.198;2023-02-01T18:15:41;2.72;;;2.30;;
50104;SDS011;47690;39.202;-77.198;2023-02-01T18:18:11;2.50;;;2.20;;
50104;SDS011;47690;39.202;-77.198;2023-02-01T18:20:43;2.50;;;2.20;;
50104;SDS011;47690;39.202;-77.198;2023-02-01T18:23:15;2.10;;;1.90;;
50104;SDS011;47690;39.202;-77.198;2023-02-01T18:25:50;2.30;;;2.10;;
50104;SDS011;47690;39.202;-77.198;2023-02-01T18:28:21;2.78;;;2.30;;
50104;SDS011;47690;39.202;-77.198;2023-02-01T18:30:51;2.30;;;2.10;;
50104;SDS011;47690;39.202;-77.198;2023-02-01T18:33:21;2.35;;;2.15;;